Cornella de Llobregat, Spain
Current Conditions -  °F | °C
As of 8:00 AM on Wednesday 22 Oct 2014 (Local Time) from LEBL Reporting Station
Few Clouds Few Clouds  
Wind Chill: 63°   Ceiling: Unl
Heat Index: 63°   Visibility: 6mi
Dew Point: 50°   Wind: 9mph
Humidity: 63%   Direction: 350°N
Pressure: 30.12"   Gusts: NA
Location:  41.35°N, 2.08°E
Report Text: LEBL 220600Z 35008KT 300V040 9999 FEW025 17/10 Q1020 NOSIG
Loading
Personal Weather Stations






























Interactive Weather Map
Tropical Storm Tracking
New forecast layout! Learn more

10-Day Weather Forecast

Advertisements
Track Severe Weather on mobile